createdAt,value
2022-08-09T00:00:32.367Z,100154.66
2022-08-09T00:01:10.465Z,100162.31
2022-08-09T00:01:55.139Z,100163.94
2022-08-09T00:02:27.805Z,100158.09
2022-08-09T00:02:59.956Z,100159.16
2022-08-09T00:04:00.820Z,100160.50
2022-08-09T00:04:34.684Z,100159.66
2022-08-09T00:06:19.162Z,100161.81
2022-08-09T00:06:19.694Z,100160.75
2022-08-09T00:06:52.413Z,100161.28
2022-08-09T00:07:24.831Z,100162.34
2022-08-09T00:08:01.713Z,100159.69
2022-08-09T00:08:34.209Z,100164.47
2022-08-09T00:09:06.093Z,100159.16
2022-08-09T00:09:42.575Z,100160.75
2022-08-09T00:10:18.034Z,100167.94
2022-08-09T00:10:53.589Z,100164.50
2022-08-09T00:11:58.680Z,100166.06
2022-08-09T00:12:23.023Z,100166.63
2022-08-09T00:12:54.983Z,100160.22
2022-08-09T00:13:27.398Z,100167.16
2022-08-09T00:13:59.515Z,100169.00
2022-08-09T00:14:38.194Z,100168.16
2022-08-09T00:15:14.574Z,100166.84
2022-08-09T00:15:59.970Z,100171.91
2022-08-09T00:16:36.769Z,100160.75
2022-08-09T00:18:05.170Z,100162.06
2022-08-09T00:18:05.709Z,100163.16
2022-08-09T00:18:42.581Z,100166.31
2022-08-09T00:19:14.840Z,100164.19
2022-08-09T00:19:50.551Z,100162.87
2022-08-09T00:20:23.839Z,100164.47
2022-08-09T00:20:55.842Z,100166.59
2022-08-09T00:21:27.858Z,100161.28
2022-08-09T00:22:00.818Z,100157.84
2022-08-09T00:22:36.288Z,100166.84
2022-08-09T00:23:54.004Z,100164.72
2022-08-09T00:24:00.789Z,100171.34
2022-08-09T00:24:33.692Z,100170.81
2022-08-09T00:25:08.338Z,100178.28
2022-08-09T00:25:42.031Z,100175.63
2022-08-09T00:26:16.008Z,100172.97
2022-08-09T00:26:49.039Z,100171.91
2022-08-09T00:27:21.116Z,100170.31
2022-08-09T00:27:53.376Z,100176.13
2022-08-09T00:28:26.512Z,100178.78
2022-08-09T00:29:00.759Z,100175.63
2022-08-09T00:30:16.314Z,100178.78
2022-08-09T00:30:26.834Z,100175.09
2022-08-09T00:30:59.100Z,100171.91
2022-08-09T00:31:59.452Z,100178.53
2022-08-09T00:32:25.657Z,100177.22
2022-08-09T00:32:59.732Z,100173.75
2022-08-09T00:33:32.679Z,100178.78
2022-08-09T00:34:20.876Z,100178.78
2022-08-09T00:34:53.015Z,100179.31
2022-08-09T00:35:25.101Z,100178.78
2022-08-09T00:36:03.277Z,100182.50
2022-08-09T00:36:35.235Z,100180.66
2022-08-09T00:37:07.310Z,100176.66
2022-08-09T00:37:41.467Z,100177.44
2022-08-09T00:38:15.791Z,100181.72
2022-08-09T00:38:50.851Z,100176.41
2022-08-09T00:40:09.081Z,100180.94
2022-08-09T00:40:17.417Z,100175.87
2022-08-09T00:40:52.650Z,100176.13
2022-08-09T00:44:10.075Z,100167.38
2022-08-09T00:44:11.745Z,100178.00
2022-08-09T00:44:13.330Z,100177.75
2022-08-09T00:44:15.308Z,100176.94
2022-08-09T00:44:55.842Z,100167.91
2022-08-09T00:45:29.212Z,100172.16
2022-08-09T00:46:01.121Z,100167.91
2022-08-09T00:46:56.063Z,100166.06
2022-08-09T00:47:26.759Z,100167.91
2022-08-09T00:48:08.383Z,100165.00
2022-08-09T00:48:49.501Z,100158.87
2022-08-09T00:49:28.167Z,100163.69
2022-08-09T00:50:02.210Z,100157.03
2022-08-09T00:50:37.875Z,100160.75
2022-08-09T00:51:12.967Z,100161.53
2022-08-09T00:51:54.497Z,100157.31
2022-08-09T00:52:30.760Z,100159.69
2022-08-09T00:53:10.158Z,100155.72
2022-08-09T00:53:42.966Z,100162.34
2022-08-09T00:54:18.436Z,100162.59
2022-08-09T00:54:53.442Z,100162.87
2022-08-09T00:56:04.026Z,100165.25
2022-08-09T00:56:17.451Z,100166.06
2022-08-09T00:56:49.361Z,100160.75
2022-08-09T00:57:24.696Z,100158.09
2022-08-09T00:58:07.129Z,100156.22
2022-08-09T00:58:41.384Z,100157.31
2022-08-09T00:59:40.501Z,100154.41
2022-08-09T01:00:21.196Z,100150.91
2022-08-09T01:00:58.893Z,100141.91
2022-08-09T01:01:44.879Z,100147.22
2022-08-09T01:02:22.535Z,100144.28
2022-08-09T01:03:08.176Z,100147.22
2022-08-09T01:04:19.388Z,100143.78
2022-08-09T01:05:14.170Z,100142.44
2022-08-09T01:06:17.996Z,100141.38
2022-08-09T01:07:05.542Z,100143.50
2022-08-09T01:08:00.009Z,100138.47
2022-08-09T01:08:51.740Z,100147.47
2022-08-09T01:09:36.018Z,100148.56
2022-08-09T01:10:33.850Z,100144.84
2022-08-09T01:11:23.834Z,100152.25
2022-08-09T01:12:19.015Z,100145.37
2022-08-09T01:13:00.782Z,100144.56
2022-08-09T01:13:41.894Z,100144.03
2022-08-09T01:14:52.481Z,100137.94
2022-08-09T01:15:29.204Z,100140.59
2022-08-09T01:16:05.896Z,100141.63
2022-08-09T01:16:47.393Z,100137.41
2022-08-09T01:17:44.467Z,100140.03
2022-08-09T01:18:30.389Z,100139.78
2022-08-09T01:19:40.183Z,100142.69
2022-08-09T01:20:57.153Z,100143.25
2022-08-09T01:21:50.898Z,100139.28
2022-08-09T01:23:01.012Z,100137.66
2022-08-09T01:24:02.149Z,100141.94
2022-08-09T01:24:54.436Z,100147.50
2022-08-09T01:25:42.198Z,100144.31
2022-08-09T01:26:42.682Z,100146.94
2022-08-09T01:27:21.786Z,100144.81
2022-08-09T01:27:57.006Z,100143.25
2022-08-09T01:28:31.396Z,100141.63
2022-08-09T01:29:06.589Z,100139.50
2022-08-09T01:29:56.120Z,100141.13
2022-08-09T01:30:35.691Z,100143.78
2022-08-09T01:32:29.924Z,100130.00
2022-08-09T01:32:37.747Z,100141.63
2022-08-09T01:33:12.494Z,100142.69
2022-08-09T01:33:48.703Z,100127.31
2022-08-09T01:34:23.090Z,100131.03
2022-08-09T01:34:56.331Z,100124.38
2022-08-09T01:35:45.604Z,100130.22
2022-08-09T01:36:22.779Z,100136.88
2022-08-09T01:36:57.943Z,100133.94
2022-08-09T01:37:42.902Z,100131.00
2022-08-09T01:38:28.008Z,100127.84
2022-08-09T01:39:02.516Z,100128.87
2022-08-09T01:39:36.590Z,100124.66
2022-08-09T01:40:10.958Z,100133.66
2022-08-09T01:41:16.962Z,100126.22
2022-08-09T01:41:53.525Z,100132.09
2022-08-09T01:42:35.226Z,100130.53
2022-08-09T01:43:08.916Z,100122.78
2022-08-09T01:43:52.551Z,100128.37
2022-08-09T01:44:25.873Z,100121.47
2022-08-09T01:44:59.324Z,100125.22
2022-08-09T01:45:32.959Z,100132.88
2022-08-09T01:46:09.964Z,100127.56
2022-08-09T01:46:53.105Z,100130.75
2022-08-09T01:47:27.261Z,100124.13
2022-08-09T01:48:06.057Z,100125.22
2022-08-09T01:48:39.895Z,100125.72
2022-08-09T01:49:15.570Z,100131.03
2022-08-09T01:49:50.992Z,100128.91
2022-08-09T01:50:36.546Z,100127.31
2022-08-09T01:51:10.073Z,100129.44
2022-08-09T01:51:54.803Z,100129.19
2022-08-09T01:52:27.605Z,100132.88
2022-08-09T01:53:19.409Z,100129.44
2022-08-09T01:53:58.029Z,100129.44
2022-08-09T01:54:44.392Z,100134.22
2022-08-09T01:55:17.959Z,100131.31
2022-08-09T01:55:52.506Z,100131.81
2022-08-09T01:56:29.093Z,100132.09
2022-08-09T01:57:08.096Z,100137.16
2022-08-09T01:57:45.784Z,100129.44
2022-08-09T01:58:18.489Z,100132.09
2022-08-09T01:58:58.991Z,100130.75
2022-08-09T01:59:32.711Z,100126.78
2022-08-09T02:00:35.234Z,100132.63
2022-08-09T02:01:08.292Z,100128.37
2022-08-09T02:01:58.000Z,100126.25
2022-08-09T02:02:34.998Z,100128.37
2022-08-09T02:03:13.537Z,100134.22
2022-08-09T02:03:47.370Z,100129.97
2022-08-09T02:04:21.767Z,100120.94
2022-08-09T02:04:56.465Z,100136.88
2022-08-09T02:05:35.461Z,100128.91
2022-08-09T02:06:11.676Z,100121.47
2022-08-09T02:07:04.134Z,100128.66
2022-08-09T02:08:41.355Z,100122.03
2022-08-09T02:08:58.120Z,100128.91
2022-08-09T02:09:41.866Z,100128.91
2022-08-09T02:10:29.765Z,100120.94
2022-08-09T02:11:03.606Z,100119.88
2022-08-09T02:11:49.860Z,100124.66
2022-08-09T02:12:22.732Z,100125.72
2022-08-09T02:12:56.194Z,100117.25
2022-08-09T02:13:37.625Z,100108.75
2022-08-09T02:14:26.391Z,100120.69
2022-08-09T02:15:00.838Z,100119.88
2022-08-09T02:15:50.455Z,100115.09
2022-08-09T02:16:33.819Z,100116.19
2022-08-09T02:17:59.429Z,100120.41
2022-08-09T02:18:10.989Z,100120.16
2022-08-09T02:18:47.756Z,100120.16
2022-08-09T02:19:20.461Z,100122.28
2022-08-09T02:19:53.513Z,100123.84
2022-08-09T02:20:32.988Z,100121.19
2022-08-09T02:21:17.305Z,100123.34
2022-08-09T02:21:59.070Z,100124.66
2022-08-09T02:22:39.731Z,100123.59
2022-08-09T02:23:20.973Z,100126.25
2022-08-09T02:23:57.905Z,100119.88
2022-08-09T02:24:35.489Z,100126.78
2022-08-09T02:25:19.458Z,100124.91
2022-08-09T02:25:55.907Z,100119.31
2022-08-09T02:26:33.341Z,100125.69
2022-08-09T02:27:09.037Z,100120.69
2022-08-09T02:28:00.445Z,100117.22
2022-08-09T02:28:41.909Z,100126.25
2022-08-09T02:29:27.735Z,100120.69
2022-08-09T02:30:05.337Z,100122.53
2022-08-09T02:30:48.675Z,100106.88
2022-08-09T02:31:31.286Z,100116.97
2022-08-09T02:32:09.459Z,100111.13
2022-08-09T02:32:46.117Z,100111.41
2022-08-09T02:33:38.177Z,100114.56
2022-08-09T02:34:40.904Z,100111.13
2022-08-09T02:35:46.273Z,100118.53
2022-08-09T02:36:22.393Z,100118.53
2022-08-09T02:37:03.449Z,100120.41
2022-08-09T02:37:37.393Z,100125.19
2022-08-09T02:38:23.630Z,100124.66
2022-08-09T02:39:05.718Z,100120.41
2022-08-09T02:40:01.786Z,100122.03
2022-08-09T02:40:37.275Z,100119.88
2022-08-09T02:41:11.668Z,100117.50
2022-08-09T02:41:47.918Z,100116.44
2022-08-09T02:42:25.857Z,100116.97
2022-08-09T02:43:01.035Z,100117.22
2022-08-09T02:43:54.180Z,100115.09
2022-08-09T02:44:34.312Z,100112.44
2022-08-09T02:45:11.011Z,100123.06
2022-08-09T02:45:45.557Z,100117.50
2022-08-09T02:46:22.680Z,100115.63
2022-08-09T02:46:59.776Z,100115.09
2022-08-09T02:47:57.210Z,100115.88
2022-08-09T02:48:31.205Z,100112.44
2022-08-09T02:49:09.022Z,100115.09
2022-08-09T02:50:07.707Z,100108.75
2022-08-09T02:50:49.291Z,100114.84
2022-08-09T02:51:26.597Z,100112.19
2022-08-09T02:52:00.730Z,100116.66
2022-08-09T02:52:43.145Z,100111.91
2022-08-09T02:53:26.594Z,100116.97
2022-08-09T02:54:02.810Z,100111.41
2022-08-09T02:54:54.198Z,100113.22
2022-08-09T02:55:33.537Z,100106.88
2022-08-09T02:56:20.591Z,100116.72
2022-08-09T02:56:57.153Z,100111.41
2022-08-09T02:57:30.545Z,100115.63
2022-08-09T02:58:35.539Z,100117.50
2022-08-09T02:59:09.315Z,100113.53
2022-08-09T03:00:11.351Z,100115.88
2022-08-09T03:00:39.366Z,100116.16
2022-08-09T03:01:29.685Z,100120.69
2022-08-09T03:02:17.177Z,100119.38
2022-08-09T03:03:00.663Z,100119.88
2022-08-09T03:03:37.186Z,100119.38
2022-08-09T03:04:29.701Z,100121.19
2022-08-09T03:05:03.222Z,100114.84
2022-08-09T03:05:39.562Z,100121.47
2022-08-09T03:06:14.980Z,100119.38
2022-08-09T03:06:48.819Z,100118.53
2022-08-09T03:07:22.126Z,100121.47
2022-08-09T03:07:55.529Z,100117.75
2022-08-09T03:08:30.100Z,100116.69
2022-08-09T03:09:03.945Z,100117.50
2022-08-09T03:09:37.286Z,100115.09
2022-08-09T03:10:16.535Z,100118.53
2022-08-09T03:10:50.738Z,100115.06
2022-08-09T03:12:06.555Z,100111.87
2022-08-09T03:12:18.817Z,100111.34
2022-08-09T03:12:52.769Z,100119.31
2022-08-09T03:13:25.661Z,100115.34
2022-08-09T03:14:18.251Z,100115.09
2022-08-09T03:14:51.779Z,100110.03
2022-08-09T03:15:25.583Z,100114.31
2022-08-09T03:16:21.001Z,100107.12
2022-08-09T03:16:54.522Z,100108.22
2022-08-09T03:17:31.686Z,100108.75
2022-08-09T03:18:09.719Z,100107.91
2022-08-09T03:18:43.697Z,100115.34
2022-08-09T03:19:59.035Z,100109.53
2022-08-09T03:20:13.317Z,100114.56
2022-08-09T03:20:47.851Z,100118.28
2022-08-09T03:21:25.710Z,100119.06
2022-08-09T03:21:58.404Z,100122.50
2022-08-09T03:22:33.526Z,100116.94
2022-08-09T03:23:24.416Z,100120.69
2022-08-09T03:24:03.794Z,100119.84
2022-08-09T03:24:42.595Z,100125.16
2022-08-09T03:25:26.687Z,100124.63
2022-08-09T03:26:18.631Z,100123.56
2022-08-09T03:26:52.019Z,100124.03
2022-08-09T03:27:26.838Z,100122.41
2022-08-09T03:28:01.932Z,100121.38
2022-08-09T03:28:37.007Z,100117.66
2022-08-09T03:29:09.709Z,100117.66
2022-08-09T03:29:58.189Z,100120.59
2022-08-09T03:30:36.774Z,100126.13
2022-08-09T03:31:21.315Z,100119.22
2022-08-09T03:32:00.278Z,100122.19
2022-08-09T03:32:37.201Z,100121.44
2022-08-09T03:33:17.596Z,100118.78
2022-08-09T03:33:53.069Z,100120.38
2022-08-09T03:34:26.865Z,100118.78
2022-08-09T03:34:59.851Z,100118.78
2022-08-09T03:35:44.198Z,100121.44
2022-08-09T03:36:27.078Z,100116.66
2022-08-09T03:37:02.342Z,100120.09
2022-08-09T03:37:55.815Z,100120.34
2022-08-09T03:38:30.838Z,100121.44
2022-08-09T03:39:04.467Z,100117.97
2022-08-09T03:39:38.037Z,100120.91
2022-08-09T03:40:13.071Z,100123.56
2022-08-09T03:40:45.267Z,100116.62
2022-08-09T03:41:18.526Z,100115.00
2022-08-09T03:41:51.252Z,100115.59
2022-08-09T03:42:39.670Z,100112.94
2022-08-09T03:43:15.110Z,100117.66
2022-08-09T03:44:03.590Z,100110.28
2022-08-09T03:44:39.931Z,100115.06
2022-08-09T03:45:11.953Z,100116.62
2022-08-09T03:46:03.829Z,100109.19
2022-08-09T03:46:37.098Z,100110.53
2022-08-09T03:47:09.017Z,100108.19
2022-08-09T03:47:42.145Z,100103.38
2022-08-09T03:48:30.740Z,100107.88
2022-08-09T03:49:08.852Z,100111.34
2022-08-09T03:49:58.904Z,100107.38
2022-08-09T03:50:33.130Z,100108.97
2022-08-09T03:51:08.316Z,100104.47
2022-08-09T03:52:03.806Z,100115.06
2022-08-09T03:52:38.734Z,100105.00
2022-08-09T03:53:11.687Z,100108.19
2022-08-09T03:53:44.740Z,100104.47
2022-08-09T03:54:18.718Z,100109.53
2022-08-09T03:55:07.685Z,100112.16
2022-08-09T03:55:42.524Z,100111.87
2022-08-09T03:56:14.662Z,100111.34
2022-08-09T03:56:46.868Z,100110.56
2022-08-09T03:57:20.855Z,100101.03
2022-08-09T03:58:03.294Z,100100.75
2022-08-09T03:58:39.017Z,100110.03
2022-08-09T03:59:17.074Z,100107.38
2022-08-09T03:59:55.982Z,100115.34
2022-08-09T04:00:28.897Z,100113.50
2022-08-09T04:01:01.635Z,100112.97
2022-08-09T04:01:35.603Z,100114.53
2022-08-09T04:02:07.641Z,100111.09
2022-08-09T04:02:44.958Z,100110.03
2022-08-09T04:03:24.588Z,100116.94
2022-08-09T04:04:10.124Z,100118.78
2022-08-09T04:04:47.890Z,100114.28
2022-08-09T04:05:27.369Z,100111.34
2022-08-09T04:06:00.534Z,100111.09
2022-08-09T04:06:37.173Z,100107.66
2022-08-09T04:07:09.684Z,100110.53
2022-08-09T04:07:52.404Z,100116.66
2022-08-09T04:08:28.740Z,100110.31
2022-08-09T04:09:03.576Z,100113.44
2022-08-09T04:09:50.257Z,100112.91
2022-08-09T04:10:29.745Z,100113.47
2022-08-09T04:11:02.194Z,100116.38
2022-08-09T04:12:07.651Z,100117.91
2022-08-09T04:12:47.682Z,100116.62
2022-08-09T04:13:45.098Z,100116.13
2022-08-09T04:14:53.505Z,100119.28
2022-08-09T04:15:11.538Z,100120.84
2022-08-09T04:16:20.236Z,100122.94
2022-08-09T04:16:41.968Z,100116.38
2022-08-09T04:17:14.338Z,100123.56
2022-08-09T04:17:47.853Z,100124.34
2022-08-09T04:18:21.595Z,100125.41
2022-08-09T04:18:54.307Z,100121.16
2022-08-09T04:19:42.667Z,100128.25
2022-08-09T04:20:16.366Z,100130.38
2022-08-09T04:20:48.830Z,100135.66
2022-08-09T04:21:22.169Z,100127.47
2022-08-09T04:21:54.274Z,100138.91
2022-08-09T04:22:27.971Z,100125.66
2022-08-09T04:23:00.305Z,100135.19
2022-08-09T04:23:34.139Z,100133.06
2022-08-09T04:24:06.747Z,100131.75
2022-08-09T04:24:39.022Z,100131.75
2022-08-09T04:25:13.435Z,100127.78
2022-08-09T04:25:51.698Z,100134.69
2022-08-09T04:26:25.223Z,100136.25
2022-08-09T04:27:09.942Z,100135.19
2022-08-09T04:27:42.821Z,100144.69
2022-08-09T04:28:34.027Z,100137.28
2022-08-09T04:29:12.111Z,100142.59
2022-08-09T04:29:49.729Z,100150.28
2022-08-09T04:30:26.140Z,100142.88
2022-08-09T04:31:00.727Z,100150.53
2022-08-09T04:31:47.250Z,100139.97
2022-08-09T04:32:31.674Z,100145.81
2022-08-09T04:33:06.155Z,100141.03
2022-08-09T04:33:52.713Z,100146.81
2022-08-09T04:34:30.622Z,100144.41
2022-08-09T04:35:05.469Z,100142.59
2022-08-09T04:35:42.473Z,100145.75
2022-08-09T04:36:14.443Z,100150.78
2022-08-09T04:36:51.339Z,100148.66
2022-08-09T04:37:24.574Z,100144.38
2022-08-09T04:38:16.571Z,100151.53
2022-08-09T04:38:51.267Z,100147.31
2022-08-09T04:39:24.263Z,100151.78
2022-08-09T04:39:56.245Z,100142.50
2022-08-09T04:40:48.179Z,100147.03
2022-08-09T04:41:32.214Z,100150.50
2022-08-09T04:42:04.974Z,100145.78
2022-08-09T04:42:41.367Z,100159.00
2022-08-09T04:43:18.474Z,100146.31
2022-08-09T04:44:05.232Z,100149.47
2022-08-09T04:44:39.406Z,100147.41
2022-08-09T04:45:21.149Z,100150.06
2022-08-09T04:45:55.659Z,100150.59
2022-08-09T04:46:57.620Z,100147.66
2022-08-09T04:47:25.984Z,100149.00
2022-08-09T04:48:10.340Z,100147.97
2022-08-09T04:48:57.453Z,100150.62
2022-08-09T04:49:52.590Z,100153.78
2022-08-09T04:50:25.246Z,100151.69
2022-08-09T04:51:07.058Z,100152.47
2022-08-09T04:51:38.967Z,100153.78
2022-08-09T04:52:10.936Z,100155.41
2022-08-09T04:52:43.248Z,100150.88
2022-08-09T04:53:16.160Z,100150.09
2022-08-09T04:53:51.182Z,100162.81
2022-08-09T04:54:25.809Z,100154.88
2022-08-09T04:55:02.527Z,100147.47
2022-08-09T04:55:39.590Z,100157.53
2022-08-09T04:56:30.451Z,100157.81
2022-08-09T04:57:03.869Z,100161.25
2022-08-09T04:57:59.341Z,100159.66
2022-08-09T04:58:29.023Z,100157.84
2022-08-09T04:59:04.885Z,100159.16
2022-08-09T04:59:39.962Z,100153.56
2022-08-09T05:00:13.115Z,100155.97
2022-08-09T05:00:45.568Z,100161.81
2022-08-09T05:01:18.696Z,100161.81
2022-08-09T05:01:50.981Z,100161.28
2022-08-09T05:02:30.638Z,100158.09
2022-08-09T05:03:30.778Z,100161.28
2022-08-09T05:03:58.763Z,100160.75
2022-08-09T05:04:34.858Z,100164.47
2022-08-09T05:05:09.842Z,100165.50
2022-08-09T05:05:52.056Z,100162.63
2022-08-09T05:06:35.920Z,100167.41
2022-08-09T05:07:08.258Z,100164.75
2022-08-09T05:07:51.031Z,100170.06
2022-08-09T05:08:25.282Z,100173.78
2022-08-09T05:09:01.309Z,100171.91
2022-08-09T05:09:48.808Z,100169.25
2022-08-09T05:10:22.004Z,100161.81
2022-08-09T05:10:56.052Z,100166.34
2022-08-09T05:11:35.899Z,100163.41
2022-08-09T05:12:08.456Z,100165.03
2022-08-09T05:12:41.822Z,100166.59
2022-08-09T05:13:14.204Z,100170.03
2022-08-09T05:13:47.334Z,100165.03
2022-08-09T05:14:20.654Z,100163.41
2022-08-09T05:14:58.899Z,100161.81
2022-08-09T05:15:42.776Z,100169.25
2022-08-09T05:16:20.211Z,100167.66
2022-08-09T05:17:03.542Z,100165.56
2022-08-09T05:18:55.093Z,100171.38
2022-08-09T05:18:57.362Z,100173.50
2022-08-09T05:19:31.772Z,100165.50
2022-08-09T05:20:16.772Z,100170.81
2022-08-09T05:20:48.974Z,100167.62
2022-08-09T05:21:24.154Z,100171.84
2022-08-09T05:21:56.898Z,100166.03
2022-08-09T05:22:35.109Z,100174.00
2022-08-09T05:23:54.427Z,100177.69
2022-08-09T05:24:02.213Z,100171.81
2022-08-09T05:24:35.842Z,100170.22
2022-08-09T05:25:08.143Z,100172.31
2022-08-09T05:25:41.675Z,100177.38
2022-08-09T05:26:16.144Z,100169.63
2022-08-09T05:27:04.624Z,100174.16
2022-08-09T05:27:39.028Z,100173.13
2022-08-09T05:28:18.842Z,100169.63
2022-08-09T05:28:52.192Z,100181.34
2022-08-09T05:29:31.160Z,100172.00
2022-08-09T05:30:04.716Z,100180.78
2022-08-09T05:30:38.952Z,100166.69
2022-08-09T05:31:37.135Z,100169.09
2022-08-09T05:32:11.989Z,100167.78
2022-08-09T05:32:51.009Z,100173.06
2022-08-09T05:33:26.512Z,100170.66
2022-08-09T05:34:05.362Z,100182.63
2022-08-09T05:34:37.958Z,100180.75
2022-08-09T05:35:14.879Z,100182.00
2022-08-09T05:35:50.791Z,100175.63
2022-08-09T05:36:22.892Z,100177.16
2022-08-09T05:37:06.047Z,100174.47
2022-08-09T05:37:47.511Z,100171.06
2022-08-09T05:38:21.643Z,100178.19
2022-08-09T05:38:54.211Z,100175.22
2022-08-09T05:39:28.794Z,100171.94
2022-08-09T05:40:04.470Z,100174.56
2022-08-09T05:40:37.066Z,100168.69
2022-08-09T05:41:12.776Z,100174.50
2022-08-09T05:41:44.904Z,100174.19
2022-08-09T05:42:21.384Z,100167.78
2022-08-09T05:42:54.166Z,100172.28
2022-08-09T05:43:31.726Z,100171.72
2022-08-09T05:44:04.210Z,100177.50
2022-08-09T05:44:37.401Z,100176.16
2022-08-09T05:45:14.236Z,100176.13
2022-08-09T05:45:55.672Z,100173.63
2022-08-09T05:46:28.930Z,100174.16
2022-08-09T05:47:01.122Z,100177.31
2022-08-09T05:47:50.854Z,100180.59
2022-08-09T05:48:27.882Z,100173.34
2022-08-09T05:49:07.303Z,100175.66
2022-08-09T05:50:30.684Z,100184.66
2022-08-09T05:51:10.205Z,100182.00
2022-08-09T05:51:46.126Z,100179.28
2022-08-09T05:52:18.871Z,100177.06
2022-08-09T05:52:54.090Z,100178.66
2022-08-09T05:53:32.132Z,100179.66
2022-08-09T05:54:05.984Z,100179.84
2022-08-09T05:54:38.383Z,100184.22
2022-08-09T05:55:20.786Z,100184.69
2022-08-09T05:55:53.633Z,100183.28
2022-08-09T05:56:28.035Z,100175.06
2022-08-09T05:56:59.984Z,100183.19
2022-08-09T05:57:56.031Z,100175.06
2022-08-09T05:58:23.773Z,100187.72
2022-08-09T05:58:59.775Z,100188.97
2022-08-09T05:59:31.651Z,100182.94
2022-08-09T06:00:07.631Z,100183.31
2022-08-09T06:00:43.457Z,100185.72
2022-08-09T06:01:16.748Z,100179.72
2022-08-09T06:01:51.516Z,100179.41
2022-08-09T06:02:31.180Z,100178.31
2022-08-09T06:03:10.604Z,100175.91
2022-08-09T06:03:44.080Z,100182.41
2022-08-09T06:04:34.772Z,100186.56
2022-08-09T06:05:08.991Z,100175.25
2022-08-09T06:05:58.178Z,100174.88
2022-08-09T06:06:34.089Z,100183.78
2022-08-09T06:07:06.051Z,100182.34
2022-08-09T06:07:41.310Z,100190.34
2022-08-09T06:08:14.258Z,100182.41
2022-08-09T06:08:52.472Z,100178.25
2022-08-09T06:09:54.431Z,100181.00
2022-08-09T06:10:18.128Z,100181.97
2022-08-09T06:10:55.944Z,100174.50
2022-08-09T06:11:41.262Z,100178.09
2022-08-09T06:12:20.314Z,100177.84
2022-08-09T06:12:57.822Z,100185.81
2022-08-09T06:13:35.690Z,100178.53
2022-08-09T06:14:09.311Z,100174.06
2022-08-09T06:14:41.578Z,100183.22
2022-08-09T06:15:13.509Z,100185.53
2022-08-09T06:15:46.950Z,100186.00
2022-08-09T06:16:19.017Z,100185.06
2022-08-09T06:16:52.153Z,100184.91
2022-08-09T06:17:24.900Z,100183.97
2022-08-09T06:17:56.939Z,100183.69
2022-08-09T06:18:29.577Z,100178.09
2022-08-09T06:19:02.552Z,100180.16
2022-08-09T06:19:36.494Z,100184.47
2022-08-09T06:20:09.451Z,100182.00
2022-08-09T06:20:42.159Z,100183.28
2022-08-09T06:21:16.342Z,100185.91
2022-08-09T06:21:50.469Z,100185.50
2022-08-09T06:22:30.559Z,100183.00
2022-08-09T06:23:02.478Z,100184.75
2022-08-09T06:23:57.777Z,100186.06
2022-08-09T06:24:28.128Z,100184.75
2022-08-09T06:25:00.721Z,100179.97
2022-08-09T06:25:32.712Z,100186.19
2022-08-09T06:26:06.619Z,100182.72
2022-08-09T06:26:42.093Z,100180.94
2022-08-09T06:27:17.277Z,100182.94
2022-08-09T06:27:51.675Z,100184.03
2022-08-09T06:28:27.446Z,100179.37
2022-08-09T06:29:05.100Z,100181.97
2022-08-09T06:29:47.958Z,100181.81
2022-08-09T06:30:29.333Z,100182.19
2022-08-09T06:31:01.235Z,100188.53
2022-08-09T06:31:39.975Z,100180.00
2022-08-09T06:32:53.519Z,100182.19
2022-08-09T06:33:40.098Z,100176.28
2022-08-09T06:34:10.671Z,100178.94
2022-08-09T06:34:42.976Z,100176.50
2022-08-09T06:35:15.583Z,100171.53
2022-08-09T06:35:57.226Z,100167.66
2022-08-09T06:36:30.184Z,100172.13
2022-08-09T06:37:02.324Z,100168.84
2022-08-09T06:38:06.116Z,100177.66
2022-08-09T06:38:37.241Z,100173.88
2022-08-09T06:39:11.761Z,100181.12
2022-08-09T06:39:58.154Z,100179.13
2022-08-09T06:40:33.450Z,100174.28
2022-08-09T06:41:18.177Z,100179.50
2022-08-09T06:42:07.714Z,100179.41
2022-08-09T06:42:45.227Z,100179.00
2022-08-09T06:43:19.082Z,100175.59
2022-08-09T06:43:53.161Z,100176.81
2022-08-09T06:44:25.426Z,100179.06
2022-08-09T06:45:00.285Z,100181.12
2022-08-09T06:46:07.378Z,100179.97
2022-08-09T06:46:39.476Z,100181.94
2022-08-09T06:47:12.900Z,100184.59
2022-08-09T06:47:48.601Z,100179.13
2022-08-09T06:48:32.396Z,100179.13
2022-08-09T06:49:08.459Z,100175.25
2022-08-09T06:50:11.516Z,100189.97
2022-08-09T06:50:32.736Z,100187.16
2022-08-09T06:51:06.459Z,100192.41
2022-08-09T06:51:40.060Z,100183.94
2022-08-09T06:52:15.814Z,100185.34
2022-08-09T06:52:48.871Z,100184.56
2022-08-09T06:53:21.018Z,100182.06
2022-08-09T06:53:52.952Z,100190.47
2022-08-09T06:54:26.318Z,100180.38
2022-08-09T06:54:58.311Z,100180.25
2022-08-09T06:55:33.177Z,100187.91
2022-08-09T06:56:09.285Z,100184.69
2022-08-09T06:56:45.456Z,100183.28
2022-08-09T06:57:18.551Z,100185.66
2022-08-09T06:58:01.855Z,100184.06
2022-08-09T07:00:46.630Z,100188.06
2022-08-09T07:00:55.236Z,100192.16
2022-08-09T07:00:56.901Z,100189.47
2022-08-09T07:01:13.224Z,100176.22
2022-08-09T07:01:58.017Z,100184.81
2022-08-09T07:02:32.294Z,100188.66
2022-08-09T07:03:05.370Z,100181.22
2022-08-09T07:03:39.699Z,100195.94
2022-08-09T07:04:24.272Z,100191.12
2022-08-09T07:04:56.914Z,100192.06
2022-08-09T07:06:02.399Z,100196.84
2022-08-09T07:06:21.585Z,100199.25
2022-08-09T07:07:00.383Z,100197.22
2022-08-09T07:07:59.553Z,100192.91
2022-08-09T07:08:24.914Z,100191.22
2022-08-09T07:08:56.936Z,100195.84
2022-08-09T07:09:54.553Z,100186.41
2022-08-09T07:10:31.338Z,100193.63
2022-08-09T07:11:06.081Z,100195.84
2022-08-09T07:11:52.220Z,100193.16
2022-08-09T07:12:40.793Z,100193.03
2022-08-09T07:13:27.259Z,100195.44
2022-08-09T07:14:05.683Z,100188.44
2022-08-09T07:14:38.740Z,100185.97
2022-08-09T07:16:34.990Z,100194.88
2022-08-09T07:16:43.423Z,100190.78
2022-08-09T07:16:58.384Z,100188.66
2022-08-09T07:17:39.859Z,100187.16
2022-08-09T07:18:22.516Z,100186.53
2022-08-09T07:18:54.418Z,100185.53
2022-08-09T07:19:27.340Z,100191.28
2022-08-09T07:19:59.298Z,100189.66
2022-08-09T07:20:31.743Z,100186.06
2022-08-09T07:21:04.074Z,100197.63
2022-08-09T07:21:41.164Z,100187.81
2022-08-09T07:22:35.099Z,100196.06
2022-08-09T07:23:18.727Z,100190.59
2022-08-09T07:23:57.778Z,100191.72
2022-08-09T07:24:31.997Z,100188.25
2022-08-09T07:25:09.634Z,100193.16
2022-08-09T07:25:43.351Z,100196.59
2022-08-09T07:26:15.719Z,100190.94
2022-08-09T07:26:47.622Z,100191.59
2022-08-09T07:27:26.826Z,100188.78
2022-08-09T07:28:06.255Z,100184.19
2022-08-09T07:28:38.153Z,100189.66
2022-08-09T07:29:30.726Z,100184.75
2022-08-09T07:30:13.359Z,100188.56
2022-08-09T07:30:45.335Z,100184.97